sensor_id;sensor_type;location;lat;lon;timestamp;P1;durP1;ratioP1;P2;durP2;ratioP2
75486;SDS011;65009;44.762;21.516;2023-02-17T00:01:29;255.30;;;125.17;;
75486;SDS011;65009;44.762;21.516;2023-02-17T00:03:55;294.17;;;142.10;;
75486;SDS011;65009;44.762;21.516;2023-02-17T00:06:23;338.63;;;160.73;;
75486;SDS011;65009;44.762;21.516;2023-02-17T00:08:50;484.80;;;248.00;;
75486;SDS011;65009;44.762;21.516;2023-02-17T00:11:16;468.93;;;241.50;;
75486;SDS011;65009;44.762;21.516;2023-02-17T00:13:42;540.77;;;264.37;;
75486;SDS011;65009;44.762;21.516;2023-02-17T00:16:10;428.37;;;208.77;;
75486;SDS011;65009;44.762;21.516;2023-02-17T00:18:37;228.97;;;111.43;;
75486;SDS011;65009;44.762;21.516;2023-02-17T00:21:10;308.77;;;141.97;;
75486;SDS011;65009;44.762;21.516;2023-02-17T00:23:36;272.13;;;124.43;;
75486;SDS011;65009;44.762;21.516;2023-02-17T00:26:03;385.03;;;211.03;;
75486;SDS011;65009;44.762;21.516;2023-02-17T00:28:30;305.33;;;163.83;;
75486;SDS011;65009;44.762;21.516;2023-02-17T00:30:56;293.43;;;147.70;;
75486;SDS011;65009;44.762;21.516;2023-02-17T00:33:22;277.77;;;140.73;;
75486;SDS011;65009;44.762;21.516;2023-02-17T00:35:48;312.53;;;143.00;;
75486;SDS011;65009;44.762;21.516;2023-02-17T00:38:15;357.30;;;156.13;;
75486;SDS011;65009;44.762;21.516;2023-02-17T00:40:41;349.97;;;159.30;;
75486;SDS011;65009;44.762;21.516;2023-02-17T00:43:07;348.20;;;151.97;;
75486;SDS011;65009;44.762;21.516;2023-02-17T00:45:33;397.00;;;168.73;;
75486;SDS011;65009;44.762;21.516;2023-02-17T00:47:59;518.50;;;231.30;;
75486;SDS011;65009;44.762;21.516;2023-02-17T00:50:26;431.87;;;197.23;;
75486;SDS011;65009;44.762;21.516;2023-02-17T00:52:52;366.70;;;167.97;;
75486;SDS011;65009;44.762;21.516;2023-02-17T00:55:18;314.87;;;152.43;;
75486;SDS011;65009;44.762;21.516;2023-02-17T00:57:44;284.03;;;137.07;;
75486;SDS011;65009;44.762;21.516;2023-02-17T01:00:11;292.17;;;141.57;;
75486;SDS011;65009;44.762;21.516;2023-02-17T01:02:37;613.40;;;273.17;;
75486;SDS011;65009;44.762;21.516;2023-02-17T01:05:03;437.07;;;193.23;;
75486;SDS011;65009;44.762;21.516;2023-02-17T01:07:29;1160.93;;;504.93;;
75486;SDS011;65009;44.762;21.516;2023-02-17T01:09:55;826.37;;;357.27;;
75486;SDS011;65009;44.762;21.516;2023-02-17T01:12:21;337.10;;;146.40;;
75486;SDS011;65009;44.762;21.516;2023-02-17T01:14:48;341.37;;;146.40;;
75486;SDS011;65009;44.762;21.516;2023-02-17T01:17:14;252.40;;;125.00;;
75486;SDS011;65009;44.762;21.516;2023-02-17T01:19:40;238.50;;;119.00;;
75486;SDS011;65009;44.762;21.516;2023-02-17T01:22:06;238.50;;;119.27;;
75486;SDS011;65009;44.762;21.516;2023-02-17T01:24:32;268.63;;;127.70;;
75486;SDS011;65009;44.762;21.516;2023-02-17T01:26:58;257.03;;;123.70;;
75486;SDS011;65009;44.762;21.516;2023-02-17T01:29:24;241.13;;;119.73;;
75486;SDS011;65009;44.762;21.516;2023-02-17T01:31:51;238.80;;;118.90;;
75486;SDS011;65009;44.762;21.516;2023-02-17T01:34:17;408.90;;;178.37;;
75486;SDS011;65009;44.762;21.516;2023-02-17T01:36:43;272.03;;;128.07;;
75486;SDS011;65009;44.762;21.516;2023-02-17T01:39:10;248.23;;;121.90;;
75486;SDS011;65009;44.762;21.516;2023-02-17T01:41:38;223.63;;;111.93;;
75486;SDS011;65009;44.762;21.516;2023-02-17T01:46:33;276.67;;;136.93;;
75486;SDS011;65009;44.762;21.516;2023-02-17T01:49:00;258.20;;;126.07;;
75486;SDS011;65009;44.762;21.516;2023-02-17T01:51:28;281.27;;;139.70;;
75486;SDS011;65009;44.762;21.516;2023-02-17T01:53:57;266.77;;;133.57;;
75486;SDS011;65009;44.762;21.516;2023-02-17T01:56:25;280.57;;;138.87;;
75486;SDS011;65009;44.762;21.516;2023-02-17T01:58:54;263.73;;;132.43;;
75486;SDS011;65009;44.762;21.516;2023-02-17T02:01:22;251.50;;;127.43;;
75486;SDS011;65009;44.762;21.516;2023-02-17T02:03:49;251.13;;;123.27;;
75486;SDS011;65009;44.762;21.516;2023-02-17T02:06:17;264.27;;;123.13;;
75486;SDS011;65009;44.762;21.516;2023-02-17T02:09:05;254.90;;;123.73;;
75486;SDS011;65009;44.762;21.516;2023-02-17T02:11:32;278.77;;;131.70;;
75486;SDS011;65009;44.762;21.516;2023-02-17T02:13:59;257.07;;;125.67;;
75486;SDS011;65009;44.762;21.516;2023-02-17T02:16:31;273.80;;;132.33;;
75486;SDS011;65009;44.762;21.516;2023-02-17T02:19:17;268.57;;;130.43;;
75486;SDS011;65009;44.762;21.516;2023-02-17T02:34:36;249.20;;;125.53;;
75486;SDS011;65009;44.762;21.516;2023-02-17T02:39:31;258.10;;;130.57;;
75486;SDS011;65009;44.762;21.516;2023-02-17T02:42:06;245.43;;;127.97;;
75486;SDS011;65009;44.762;21.516;2023-02-17T02:44:33;298.53;;;147.00;;
75486;SDS011;65009;44.762;21.516;2023-02-17T02:47:01;330.47;;;167.47;;
75486;SDS011;65009;44.762;21.516;2023-02-17T02:49:27;422.97;;;229.77;;
75486;SDS011;65009;44.762;21.516;2023-02-17T02:51:58;268.90;;;135.17;;
75486;SDS011;65009;44.762;21.516;2023-02-17T03:02:30;257.80;;;124.20;;
75486;SDS011;65009;44.762;21.516;2023-02-17T03:10:02;204.33;;;104.87;;
75486;SDS011;65009;44.762;21.516;2023-02-17T03:12:29;189.80;;;100.67;;
75486;SDS011;65009;44.762;21.516;2023-02-17T03:15:02;201.27;;;107.07;;
75486;SDS011;65009;44.762;21.516;2023-02-17T03:17:30;207.87;;;105.67;;
75486;SDS011;65009;44.762;21.516;2023-02-17T03:19:57;222.80;;;115.30;;
75486;SDS011;65009;44.762;21.516;2023-02-17T03:22:24;229.20;;;119.70;;
75486;SDS011;65009;44.762;21.516;2023-02-17T03:24:53;243.67;;;124.70;;
75486;SDS011;65009;44.762;21.516;2023-02-17T03:27:19;239.77;;;120.67;;
75486;SDS011;65009;44.762;21.516;2023-02-17T03:29:46;232.97;;;119.57;;
75486;SDS011;65009;44.762;21.516;2023-02-17T03:32:12;233.60;;;120.60;;
75486;SDS011;65009;44.762;21.516;2023-02-17T03:34:38;231.13;;;117.23;;
75486;SDS011;65009;44.762;21.516;2023-02-17T03:37:04;251.10;;;127.73;;
75486;SDS011;65009;44.762;21.516;2023-02-17T03:39:30;252.73;;;129.83;;
75486;SDS011;65009;44.762;21.516;2023-02-17T03:41:56;269.43;;;134.77;;
75486;SDS011;65009;44.762;21.516;2023-02-17T03:44:23;259.33;;;128.07;;
75486;SDS011;65009;44.762;21.516;2023-02-17T03:46:49;235.90;;;118.63;;
75486;SDS011;65009;44.762;21.516;2023-02-17T03:49:15;242.30;;;121.73;;
75486;SDS011;65009;44.762;21.516;2023-02-17T03:51:41;238.13;;;122.63;;
75486;SDS011;65009;44.762;21.516;2023-02-17T03:54:07;228.80;;;119.53;;
75486;SDS011;65009;44.762;21.516;2023-02-17T03:56:33;230.70;;;117.30;;
75486;SDS011;65009;44.762;21.516;2023-02-17T03:59:00;217.77;;;111.80;;
75486;SDS011;65009;44.762;21.516;2023-02-17T04:01:26;270.60;;;131.00;;
75486;SDS011;65009;44.762;21.516;2023-02-17T04:03:52;328.93;;;160.17;;
75486;SDS011;65009;44.762;21.516;2023-02-17T04:06:18;310.87;;;145.33;;
75486;SDS011;65009;44.762;21.516;2023-02-17T04:08:45;286.43;;;132.40;;
75486;SDS011;65009;44.762;21.516;2023-02-17T04:11:11;296.53;;;133.37;;
75486;SDS011;65009;44.762;21.516;2023-02-17T04:13:37;282.17;;;133.73;;
75486;SDS011;65009;44.762;21.516;2023-02-17T04:16:05;270.43;;;129.00;;
75486;SDS011;65009;44.762;21.516;2023-02-17T04:18:32;274.03;;;132.87;;
75486;SDS011;65009;44.762;21.516;2023-02-17T04:20:58;304.37;;;148.63;;
75486;SDS011;65009;44.762;21.516;2023-02-17T04:23:24;264.57;;;127.33;;
75486;SDS011;65009;44.762;21.516;2023-02-17T04:25:51;282.50;;;132.50;;
75486;SDS011;65009;44.762;21.516;2023-02-17T04:28:17;386.00;;;176.10;;
75486;SDS011;65009;44.762;21.516;2023-02-17T04:30:44;320.97;;;140.70;;
75486;SDS011;65009;44.762;21.516;2023-02-17T04:33:10;299.33;;;137.93;;
75486;SDS011;65009;44.762;21.516;2023-02-17T04:35:37;294.83;;;133.87;;
75486;SDS011;65009;44.762;21.516;2023-02-17T04:38:03;271.27;;;132.07;;
75486;SDS011;65009;44.762;21.516;2023-02-17T04:40:30;244.27;;;117.33;;
75486;SDS011;65009;44.762;21.516;2023-02-17T04:42:56;240.97;;;114.77;;
75486;SDS011;65009;44.762;21.516;2023-02-17T04:45:22;248.10;;;122.10;;
75486;SDS011;65009;44.762;21.516;2023-02-17T04:47:49;239.83;;;118.23;;
75486;SDS011;65009;44.762;21.516;2023-02-17T04:50:15;267.57;;;122.13;;
75486;SDS011;65009;44.762;21.516;2023-02-17T04:52:41;297.90;;;139.27;;
75486;SDS011;65009;44.762;21.516;2023-02-17T04:55:07;284.50;;;131.93;;
75486;SDS011;65009;44.762;21.516;2023-02-17T04:57:34;255.40;;;125.47;;
75486;SDS011;65009;44.762;21.516;2023-02-17T05:00:00;255.23;;;122.30;;
75486;SDS011;65009;44.762;21.516;2023-02-17T05:02:26;254.80;;;125.50;;
75486;SDS011;65009;44.762;21.516;2023-02-17T05:04:54;315.40;;;142.83;;
75486;SDS011;65009;44.762;21.516;2023-02-17T05:07:20;268.43;;;124.80;;
75486;SDS011;65009;44.762;21.516;2023-02-17T05:09:47;226.27;;;110.93;;
75486;SDS011;65009;44.762;21.516;2023-02-17T05:12:13;222.50;;;106.90;;
75486;SDS011;65009;44.762;21.516;2023-02-17T05:14:39;218.27;;;103.77;;
75486;SDS011;65009;44.762;21.516;2023-02-17T05:17:05;263.40;;;131.40;;
75486;SDS011;65009;44.762;21.516;2023-02-17T05:19:32;251.77;;;129.30;;
75486;SDS011;65009;44.762;21.516;2023-02-17T05:21:58;248.40;;;124.43;;
75486;SDS011;65009;44.762;21.516;2023-02-17T05:24:24;276.67;;;132.60;;
75486;SDS011;65009;44.762;21.516;2023-02-17T05:26:50;258.47;;;122.73;;
75486;SDS011;65009;44.762;21.516;2023-02-17T05:29:16;280.47;;;130.87;;
75486;SDS011;65009;44.762;21.516;2023-02-17T05:31:43;267.03;;;129.93;;
75486;SDS011;65009;44.762;21.516;2023-02-17T05:34:09;264.90;;;131.83;;
75486;SDS011;65009;44.762;21.516;2023-02-17T05:36:35;229.90;;;117.83;;
75486;SDS011;65009;44.762;21.516;2023-02-17T05:39:02;217.93;;;108.03;;
75486;SDS011;65009;44.762;21.516;2023-02-17T05:41:28;214.40;;;107.73;;
75486;SDS011;65009;44.762;21.516;2023-02-17T05:43:54;220.10;;;107.83;;
75486;SDS011;65009;44.762;21.516;2023-02-17T05:46:20;206.33;;;101.97;;
75486;SDS011;65009;44.762;21.516;2023-02-17T05:48:47;188.17;;;98.10;;
75486;SDS011;65009;44.762;21.516;2023-02-17T05:51:13;224.67;;;112.23;;
75486;SDS011;65009;44.762;21.516;2023-02-17T05:53:41;218.43;;;109.33;;
75486;SDS011;65009;44.762;21.516;2023-02-17T05:56:08;222.73;;;107.83;;
75486;SDS011;65009;44.762;21.516;2023-02-17T05:58:34;281.23;;;131.80;;
75486;SDS011;65009;44.762;21.516;2023-02-17T06:01:00;304.30;;;144.37;;
75486;SDS011;65009;44.762;21.516;2023-02-17T06:03:26;271.13;;;131.43;;
75486;SDS011;65009;44.762;21.516;2023-02-17T06:05:53;288.50;;;137.60;;
75486;SDS011;65009;44.762;21.516;2023-02-17T06:08:19;294.17;;;144.30;;
75486;SDS011;65009;44.762;21.516;2023-02-17T06:10:45;286.27;;;142.20;;
75486;SDS011;65009;44.762;21.516;2023-02-17T06:13:11;259.73;;;129.50;;
75486;SDS011;65009;44.762;21.516;2023-02-17T06:15:37;255.43;;;121.90;;
75486;SDS011;65009;44.762;21.516;2023-02-17T06:18:04;241.40;;;117.03;;
75486;SDS011;65009;44.762;21.516;2023-02-17T06:20:30;209.50;;;105.00;;
75486;SDS011;65009;44.762;21.516;2023-02-17T06:22:56;233.57;;;114.33;;
75486;SDS011;65009;44.762;21.516;2023-02-17T06:25:22;273.13;;;132.17;;
75486;SDS011;65009;44.762;21.516;2023-02-17T06:27:49;249.73;;;123.97;;
75486;SDS011;65009;44.762;21.516;2023-02-17T06:30:15;194.13;;;96.20;;
75486;SDS011;65009;44.762;21.516;2023-02-17T06:32:41;165.50;;;87.77;;
75486;SDS011;65009;44.762;21.516;2023-02-17T06:35:08;168.27;;;85.23;;
75486;SDS011;65009;44.762;21.516;2023-02-17T06:37:34;166.03;;;87.17;;
75486;SDS011;65009;44.762;21.516;2023-02-17T06:40:00;167.43;;;85.53;;
75486;SDS011;65009;44.762;21.516;2023-02-17T06:42:26;161.53;;;87.50;;
75486;SDS011;65009;44.762;21.516;2023-02-17T06:44:52;167.07;;;90.67;;
75486;SDS011;65009;44.762;21.516;2023-02-17T06:47:19;188.20;;;99.07;;
75486;SDS011;65009;44.762;21.516;2023-02-17T06:49:45;199.93;;;106.63;;
75486;SDS011;65009;44.762;21.516;2023-02-17T06:52:11;200.17;;;107.17;;
75486;SDS011;65009;44.762;21.516;2023-02-17T06:54:37;202.03;;;106.10;;
75486;SDS011;65009;44.762;21.516;2023-02-17T06:57:03;191.23;;;105.03;;
75486;SDS011;65009;44.762;21.516;2023-02-17T06:59:30;202.20;;;109.47;;
75486;SDS011;65009;44.762;21.516;2023-02-17T07:01:57;201.73;;;109.27;;
75486;SDS011;65009;44.762;21.516;2023-02-17T07:04:23;215.90;;;116.10;;
75486;SDS011;65009;44.762;21.516;2023-02-17T07:06:49;216.27;;;113.87;;
75486;SDS011;65009;44.762;21.516;2023-02-17T07:09:17;205.67;;;110.10;;
75486;SDS011;65009;44.762;21.516;2023-02-17T07:11:43;282.23;;;143.30;;
75486;SDS011;65009;44.762;21.516;2023-02-17T07:14:09;489.40;;;250.77;;
75486;SDS011;65009;44.762;21.516;2023-02-17T07:16:35;397.63;;;207.07;;
75486;SDS011;65009;44.762;21.516;2023-02-17T07:19:03;281.00;;;149.10;;
75486;SDS011;65009;44.762;21.516;2023-02-17T07:21:29;248.40;;;137.40;;
75486;SDS011;65009;44.762;21.516;2023-02-17T07:23:55;256.13;;;137.20;;
75486;SDS011;65009;44.762;21.516;2023-02-17T07:26:21;255.47;;;140.53;;
75486;SDS011;65009;44.762;21.516;2023-02-17T07:28:48;308.60;;;152.60;;
75486;SDS011;65009;44.762;21.516;2023-02-17T07:31:15;230.70;;;123.00;;
75486;SDS011;65009;44.762;21.516;2023-02-17T07:33:42;235.40;;;121.83;;
75486;SDS011;65009;44.762;21.516;2023-02-17T07:36:10;196.47;;;107.10;;
75486;SDS011;65009;44.762;21.516;2023-02-17T07:38:36;176.73;;;97.67;;
75486;SDS011;65009;44.762;21.516;2023-02-17T07:41:07;175.70;;;97.43;;
75486;SDS011;65009;44.762;21.516;2023-02-17T07:43:34;168.23;;;94.17;;
75486;SDS011;65009;44.762;21.516;2023-02-17T07:46:00;130.70;;;74.23;;
75486;SDS011;65009;44.762;21.516;2023-02-17T07:48:26;120.97;;;72.27;;
75486;SDS011;65009;44.762;21.516;2023-02-17T07:50:53;121.93;;;73.63;;
75486;SDS011;65009;44.762;21.516;2023-02-17T07:53:19;118.63;;;70.00;;
75486;SDS011;65009;44.762;21.516;2023-02-17T07:55:45;119.23;;;67.13;;
75486;SDS011;65009;44.762;21.516;2023-02-17T07:58:11;106.37;;;63.83;;
75486;SDS011;65009;44.762;21.516;2023-02-17T08:00:37;108.10;;;67.17;;
75486;SDS011;65009;44.762;21.516;2023-02-17T08:03:03;116.03;;;68.90;;
75486;SDS011;65009;44.762;21.516;2023-02-17T08:05:30;123.33;;;72.13;;
75486;SDS011;65009;44.762;21.516;2023-02-17T08:07:56;121.03;;;73.23;;
75486;SDS011;65009;44.762;21.516;2023-02-17T08:10:40;130.67;;;77.43;;
75486;SDS011;65009;44.762;21.516;2023-02-17T08:13:25;117.63;;;71.50;;
75486;SDS011;65009;44.762;21.516;2023-02-17T08:15:51;125.90;;;76.57;;
75486;SDS011;65009;44.762;21.516;2023-02-17T08:18:18;112.43;;;67.90;;
75486;SDS011;65009;44.762;21.516;2023-02-17T08:20:44;106.13;;;65.33;;
75486;SDS011;65009;44.762;21.516;2023-02-17T08:23:10;105.90;;;66.60;;
75486;SDS011;65009;44.762;21.516;2023-02-17T08:25:36;109.47;;;67.90;;
75486;SDS011;65009;44.762;21.516;2023-02-17T08:28:03;105.27;;;66.23;;
75486;SDS011;65009;44.762;21.516;2023-02-17T08:30:30;102.67;;;63.67;;
75486;SDS011;65009;44.762;21.516;2023-02-17T08:32:59;103.03;;;65.20;;
75486;SDS011;65009;44.762;21.516;2023-02-17T08:35:26;106.10;;;65.37;;
75486;SDS011;65009;44.762;21.516;2023-02-17T08:37:52;108.30;;;68.87;;
75486;SDS011;65009;44.762;21.516;2023-02-17T08:40:19;104.83;;;65.67;;
75486;SDS011;65009;44.762;21.516;2023-02-17T08:42:45;116.23;;;73.53;;
75486;SDS011;65009;44.762;21.516;2023-02-17T08:45:12;114.73;;;70.03;;
75486;SDS011;65009;44.762;21.516;2023-02-17T08:47:39;112.33;;;70.30;;
75486;SDS011;65009;44.762;21.516;2023-02-17T08:50:05;120.53;;;74.57;;
75486;SDS011;65009;44.762;21.516;2023-02-17T08:52:33;119.43;;;76.07;;
75486;SDS011;65009;44.762;21.516;2023-02-17T08:54:59;129.20;;;76.50;;
75486;SDS011;65009;44.762;21.516;2023-02-17T08:57:25;130.00;;;79.73;;
75486;SDS011;65009;44.762;21.516;2023-02-17T08:59:52;122.00;;;78.20;;
75486;SDS011;65009;44.762;21.516;2023-02-17T09:02:18;116.43;;;74.13;;
75486;SDS011;65009;44.762;21.516;2023-02-17T09:04:44;122.13;;;80.78;;
75486;SDS011;65009;44.762;21.516;2023-02-17T09:07:11;118.38;;;76.95;;
75486;SDS011;65009;44.762;21.516;2023-02-17T09:09:38;119.38;;;77.38;;
75486;SDS011;65009;44.762;21.516;2023-02-17T09:12:05;125.13;;;80.30;;
75486;SDS011;65009;44.762;21.516;2023-02-17T09:14:31;117.65;;;75.68;;
75486;SDS011;65009;44.762;21.516;2023-02-17T09:16:57;112.70;;;75.25;;
75486;SDS011;65009;44.762;21.516;2023-02-17T09:19:24;114.97;;;76.18;;
75486;SDS011;65009;44.762;21.516;2023-02-17T09:21:50;112.10;;;73.32;;
75486;SDS011;65009;44.762;21.516;2023-02-17T09:24:17;105.10;;;68.93;;
75486;SDS011;65009;44.762;21.516;2023-02-17T09:26:43;106.82;;;71.63;;
75486;SDS011;65009;44.762;21.516;2023-02-17T09:29:09;114.35;;;76.32;;
75486;SDS011;65009;44.762;21.516;2023-02-17T09:31:35;110.85;;;73.55;;
75486;SDS011;65009;44.762;21.516;2023-02-17T09:34:02;103.25;;;71.32;;
75486;SDS011;65009;44.762;21.516;2023-02-17T09:36:32;116.78;;;78.38;;
75486;SDS011;65009;44.762;21.516;2023-02-17T09:38:59;117.22;;;78.30;;
75486;SDS011;65009;44.762;21.516;2023-02-17T09:41:27;132.40;;;88.55;;
75486;SDS011;65009;44.762;21.516;2023-02-17T09:43:56;105.88;;;73.53;;
75486;SDS011;65009;44.762;21.516;2023-02-17T09:46:32;102.15;;;71.40;;
75486;SDS011;65009;44.762;21.516;2023-02-17T09:49:02;106.85;;;72.43;;
75486;SDS011;65009;44.762;21.516;2023-02-17T09:51:32;104.23;;;73.63;;
75486;SDS011;65009;44.762;21.516;2023-02-17T09:54:03;105.88;;;75.47;;
75486;SDS011;65009;44.762;21.516;2023-02-17T09:56:32;103.82;;;77.22;;
75486;SDS011;65009;44.762;21.516;2023-02-17T09:59:00;102.00;;;74.57;;
75486;SDS011;65009;44.762;21.516;2023-02-17T10:01:28;97.93;;;74.05;;
75486;SDS011;65009;44.762;21.516;2023-02-17T10:03:58;105.07;;;78.75;;
75486;SDS011;65009;44.762;21.516;2023-02-17T10:08:55;106.97;;;79.97;;
75486;SDS011;65009;44.762;21.516;2023-02-17T10:11:33;95.65;;;71.85;;
75486;SDS011;65009;44.762;21.516;2023-02-17T10:14:04;104.85;;;77.30;;
75486;SDS011;65009;44.762;21.516;2023-02-17T10:16:35;106.05;;;77.57;;
75486;SDS011;65009;44.762;21.516;2023-02-17T10:19:09;107.38;;;77.68;;
75486;SDS011;65009;44.762;21.516;2023-02-17T10:21:38;99.35;;;74.95;;
75486;SDS011;65009;44.762;21.516;2023-02-17T10:24:08;100.80;;;75.82;;
75486;SDS011;65009;44.762;21.516;2023-02-17T10:26:46;100.82;;;74.80;;
75486;SDS011;65009;44.762;21.516;2023-02-17T10:31:44;100.00;;;73.75;;
75486;SDS011;65009;44.762;21.516;2023-02-17T10:34:12;99.63;;;76.18;;
75486;SDS011;65009;44.762;21.516;2023-02-17T10:39:15;108.22;;;81.25;;
75486;SDS011;65009;44.762;21.516;2023-02-17T10:41:49;109.43;;;79.20;;
75486;SDS011;65009;44.762;21.516;2023-02-17T10:44:19;105.75;;;76.40;;
75486;SDS011;65009;44.762;21.516;2023-02-17T10:46:46;110.90;;;81.22;;
75486;SDS011;65009;44.762;21.516;2023-02-17T10:49:32;105.43;;;75.32;;
75486;SDS011;65009;44.762;21.516;2023-02-17T10:52:09;101.97;;;76.30;;
75486;SDS011;65009;44.762;21.516;2023-02-17T10:54:37;101.97;;;73.65;;
75486;SDS011;65009;44.762;21.516;2023-02-17T10:57:07;98.60;;;73.05;;
75486;SDS011;65009;44.762;21.516;2023-02-17T10:59:38;98.63;;;72.15;;
75486;SDS011;65009;44.762;21.516;2023-02-17T11:02:15;100.60;;;74.55;;
75486;SDS011;65009;44.762;21.516;2023-02-17T11:04:44;94.07;;;73.70;;
75486;SDS011;65009;44.762;21.516;2023-02-17T11:07:10;88.00;;;68.18;;
75486;SDS011;65009;44.762;21.516;2023-02-17T11:09:39;88.38;;;67.80;;
75486;SDS011;65009;44.762;21.516;2023-02-17T11:14:31;83.35;;;65.38;;
75486;SDS011;65009;44.762;21.516;2023-02-17T11:16:59;92.25;;;68.63;;
75486;SDS011;65009;44.762;21.516;2023-02-17T11:19:27;83.07;;;64.80;;
75486;SDS011;65009;44.762;21.516;2023-02-17T11:21:55;85.75;;;65.25;;
75486;SDS011;65009;44.762;21.516;2023-02-17T11:24:22;79.50;;;64.45;;
75486;SDS011;65009;44.762;21.516;2023-02-17T11:26:56;79.05;;;63.45;;
75486;SDS011;65009;44.762;21.516;2023-02-17T11:29:23;77.00;;;62.28;;
75486;SDS011;65009;44.762;21.516;2023-02-17T11:31:53;82.45;;;64.78;;
75486;SDS011;65009;44.762;21.516;2023-02-17T11:34:21;81.38;;;64.53;;
75486;SDS011;65009;44.762;21.516;2023-02-17T11:36:55;75.55;;;61.88;;
75486;SDS011;65009;44.762;21.516;2023-02-17T11:39:23;87.40;;;70.55;;
75486;SDS011;65009;44.762;21.516;2023-02-17T11:41:49;75.65;;;62.45;;
75486;SDS011;65009;44.762;21.516;2023-02-17T11:44:22;57.05;;;48.20;;
75486;SDS011;65009;44.762;21.516;2023-02-17T11:46:58;61.10;;;50.75;;
75486;SDS011;65009;44.762;21.516;2023-02-17T11:57:36;48.08;;;42.42;;
75486;SDS011;65009;44.762;21.516;2023-02-17T12:08:04;53.72;;;44.22;;
75486;SDS011;65009;44.762;21.516;2023-02-17T12:13:02;41.50;;;35.72;;
75486;SDS011;65009;44.762;21.516;2023-02-17T12:18:23;41.88;;;37.30;;
75486;SDS011;65009;44.762;21.516;2023-02-17T12:26:23;39.42;;;35.20;;
75486;SDS011;65009;44.762;21.516;2023-02-17T12:34:11;44.28;;;36.00;;
75486;SDS011;65009;44.762;21.516;2023-02-17T12:36:39;40.58;;;33.83;;
75486;SDS011;65009;44.762;21.516;2023-02-17T12:41:50;37.17;;;33.13;;
75486;SDS011;65009;44.762;21.516;2023-02-17T12:44:20;34.13;;;30.42;;
75486;SDS011;65009;44.762;21.516;2023-02-17T12:46:51;34.97;;;31.17;;
75486;SDS011;65009;44.762;21.516;2023-02-17T12:49:26;41.97;;;36.50;;
75486;SDS011;65009;44.762;21.516;2023-02-17T12:51:56;34.67;;;30.95;;
75486;SDS011;65009;44.762;21.516;2023-02-17T12:54:34;37.63;;;32.20;;
75486;SDS011;65009;44.762;21.516;2023-02-17T12:59:39;30.10;;;26.92;;
75486;SDS011;65009;44.762;21.516;2023-02-17T13:02:10;32.67;;;28.30;;
75486;SDS011;65009;44.762;21.516;2023-02-17T13:09:30;31.52;;;26.95;;
75486;SDS011;65009;44.762;21.516;2023-02-17T13:14:44;52.35;;;44.85;;
75486;SDS011;65009;44.762;21.516;2023-02-17T13:22:27;51.00;;;41.50;;
75486;SDS011;65009;44.762;21.516;2023-02-17T13:24:53;53.42;;;42.10;;
75486;SDS011;65009;44.762;21.516;2023-02-17T13:27:20;39.53;;;33.45;;
75486;SDS011;65009;44.762;21.516;2023-02-17T13:29:57;44.42;;;36.90;;
75486;SDS011;65009;44.762;21.516;2023-02-17T13:32:28;42.65;;;35.40;;
75486;SDS011;65009;44.762;21.516;2023-02-17T13:34:59;40.53;;;32.15;;
75486;SDS011;65009;44.762;21.516;2023-02-17T13:40:07;53.55;;;42.17;;
75486;SDS011;65009;44.762;21.516;2023-02-17T13:42:38;37.42;;;28.95;;
75486;SDS011;65009;44.762;21.516;2023-02-17T13:45:12;39.95;;;26.25;;
75486;SDS011;65009;44.762;21.516;2023-02-17T13:47:39;48.25;;;33.50;;
75486;SDS011;65009;44.762;21.516;2023-02-17T13:50:06;39.47;;;28.40;;
75486;SDS011;65009;44.762;21.516;2023-02-17T13:52:32;35.28;;;28.67;;
75486;SDS011;65009;44.762;21.516;2023-02-17T13:55:00;38.50;;;28.25;;
75486;SDS011;65009;44.762;21.516;2023-02-17T13:57:30;36.35;;;27.30;;
75486;SDS011;65009;44.762;21.516;2023-02-17T14:00:04;49.20;;;37.90;;
75486;SDS011;65009;44.762;21.516;2023-02-17T14:02:30;42.15;;;31.67;;
75486;SDS011;65009;44.762;21.516;2023-02-17T14:04:57;38.95;;;28.27;;
75486;SDS011;65009;44.762;21.516;2023-02-17T14:07:23;39.97;;;27.23;;
75486;SDS011;65009;44.762;21.516;2023-02-17T14:09:53;38.10;;;29.58;;
75486;SDS011;65009;44.762;21.516;2023-02-17T14:12:22;131.88;;;94.80;;
75486;SDS011;65009;44.762;21.516;2023-02-17T14:14:50;51.00;;;38.37;;
75486;SDS011;65009;44.762;21.516;2023-02-17T14:17:29;51.50;;;36.25;;
75486;SDS011;65009;44.762;21.516;2023-02-17T14:19:56;61.47;;;42.65;;
75486;SDS011;65009;44.762;21.516;2023-02-17T14:22:26;40.58;;;28.13;;
75486;SDS011;65009;44.762;21.516;2023-02-17T14:25:00;65.35;;;49.35;;
75486;SDS011;65009;44.762;21.516;2023-02-17T14:27:26;45.28;;;32.10;;
75486;SDS011;65009;44.762;21.516;2023-02-17T14:29:52;45.67;;;32.13;;
75486;SDS011;65009;44.762;21.516;2023-02-17T14:32:29;49.03;;;28.75;;
75486;SDS011;65009;44.762;21.516;2023-02-17T14:35:14;41.53;;;28.38;;
75486;SDS011;65009;44.762;21.516;2023-02-17T14:37:44;46.30;;;33.42;;
75486;SDS011;65009;44.762;21.516;2023-02-17T14:40:43;43.63;;;30.42;;
75486;SDS011;65009;44.762;21.516;2023-02-17T14:43:04;47.85;;;32.25;;
75486;SDS011;65009;44.762;21.516;2023-02-17T14:45:30;43.85;;;31.27;;
75486;SDS011;65009;44.762;21.516;2023-02-17T14:47:56;43.85;;;31.25;;
75486;SDS011;65009;44.762;21.516;2023-02-17T14:50:22;54.60;;;33.67;;
75486;SDS011;65009;44.762;21.516;2023-02-17T14:52:49;56.13;;;34.75;;
75486;SDS011;65009;44.762;21.516;2023-02-17T14:55:32;55.70;;;36.70;;
75486;SDS011;65009;44.762;21.516;2023-02-17T14:57:59;56.13;;;36.10;;
75486;SDS011;65009;44.762;21.516;2023-02-17T15:00:25;52.80;;;33.55;;
75486;SDS011;65009;44.762;21.516;2023-02-17T15:02:51;50.22;;;34.30;;
75486;SDS011;65009;44.762;21.516;2023-02-17T15:05:17;43.03;;;29.55;;
75486;SDS011;65009;44.762;21.516;2023-02-17T15:07:44;44.50;;;31.40;;
75486;SDS011;65009;44.762;21.516;2023-02-17T15:10:13;143.15;;;99.38;;
75486;SDS011;65009;44.762;21.516;2023-02-17T15:12:41;72.53;;;48.55;;
75486;SDS011;65009;44.762;21.516;2023-02-17T15:15:08;68.25;;;46.78;;
75486;SDS011;65009;44.762;21.516;2023-02-17T15:17:35;155.63;;;113.45;;
75486;SDS011;65009;44.762;21.516;2023-02-17T15:20:01;53.10;;;34.67;;
75486;SDS011;65009;44.762;21.516;2023-02-17T15:22:29;50.67;;;31.92;;
75486;SDS011;65009;44.762;21.516;2023-02-17T15:24:55;72.55;;;40.45;;
75486;SDS011;65009;44.762;21.516;2023-02-17T15:27:21;72.10;;;43.05;;
75486;SDS011;65009;44.762;21.516;2023-02-17T15:29:47;64.00;;;39.30;;
75486;SDS011;65009;44.762;21.516;2023-02-17T15:32:15;103.65;;;75.13;;